createdAt,value
2022-10-05T00:00:35.531Z,49.30
2022-10-05T00:03:45.227Z,49.29
2022-10-05T00:06:34.994Z,49.31
2022-10-05T00:09:24.975Z,49.31
2022-10-05T00:12:16.965Z,49.31
2022-10-05T00:15:12.836Z,49.33
2022-10-05T00:18:02.785Z,49.31
2022-10-05T00:20:52.801Z,49.28
2022-10-05T00:23:42.538Z,49.30
2022-10-05T00:26:34.150Z,49.34
2022-10-05T00:29:24.406Z,49.34
2022-10-05T00:32:14.163Z,49.34
2022-10-05T00:35:04.452Z,49.33
2022-10-05T00:37:54.745Z,49.33
2022-10-05T00:40:56.081Z,49.34
2022-10-05T00:44:03.748Z,49.33
2022-10-05T00:46:56.741Z,49.33
2022-10-05T00:50:46.591Z,49.33
2022-10-05T00:53:42.873Z,49.32
2022-10-05T00:56:45.128Z,49.34
2022-10-05T00:59:46.378Z,49.34
2022-10-05T01:02:45.015Z,49.34
2022-10-05T01:05:51.127Z,49.35
2022-10-05T01:08:48.962Z,49.36
2022-10-05T01:11:43.332Z,49.35
2022-10-05T01:14:39.981Z,49.35
2022-10-05T01:17:33.608Z,49.36
2022-10-05T01:20:38.930Z,49.37
2022-10-05T01:23:58.796Z,49.39
2022-10-05T01:27:16.487Z,49.37
2022-10-05T01:30:10.412Z,49.37
2022-10-05T01:33:03.541Z,49.38
2022-10-05T01:35:58.581Z,49.40
2022-10-05T01:38:52.550Z,49.41
2022-10-05T01:41:46.776Z,49.40
2022-10-05T01:44:40.937Z,49.40
2022-10-05T01:47:35.771Z,49.41
2022-10-05T01:50:31.716Z,49.42
2022-10-05T01:53:31.181Z,49.42
2022-10-05T01:56:28.325Z,49.43
2022-10-05T01:59:20.940Z,49.44
2022-10-05T02:02:12.332Z,49.40
2022-10-05T02:05:06.513Z,49.42
2022-10-05T02:07:58.536Z,49.42
2022-10-05T02:10:51.405Z,49.43
2022-10-05T02:13:44.018Z,49.44
2022-10-05T02:16:36.695Z,49.47
2022-10-05T02:19:29.712Z,49.46
2022-10-05T02:22:24.220Z,49.47
2022-10-05T02:25:16.697Z,49.49
2022-10-05T02:28:09.848Z,49.48
2022-10-05T02:31:04.191Z,49.48
2022-10-05T02:34:18.046Z,49.49
2022-10-05T02:37:22.733Z,49.50
2022-10-05T02:40:21.986Z,49.52
2022-10-05T02:43:20.890Z,49.52
2022-10-05T02:46:18.969Z,49.54
2022-10-05T02:49:18.363Z,49.54
2022-10-05T02:52:11.434Z,49.56
2022-10-05T02:55:07.715Z,49.56
2022-10-05T02:58:02.859Z,49.58
2022-10-05T03:00:57.443Z,49.57
2022-10-05T03:03:52.294Z,49.58
2022-10-05T03:06:48.283Z,49.58
2022-10-05T03:09:44.868Z,49.57
2022-10-05T03:12:50.341Z,49.55
2022-10-05T03:16:10.243Z,49.57
2022-10-05T03:19:20.483Z,49.58
2022-10-05T03:22:17.445Z,49.59
2022-10-05T03:25:30.578Z,49.61
2022-10-05T03:28:24.713Z,49.60
2022-10-05T03:31:20.838Z,49.61
2022-10-05T03:34:12.938Z,49.59
2022-10-05T03:37:07.313Z,49.57
2022-10-05T03:40:02.863Z,49.58
2022-10-05T03:43:01.113Z,49.60
2022-10-05T03:45:57.485Z,49.61
2022-10-05T03:48:54.587Z,49.61
2022-10-05T03:51:46.879Z,49.63
2022-10-05T03:54:39.787Z,49.63
2022-10-05T03:57:33.140Z,49.64
2022-10-05T04:00:23.266Z,49.63
2022-10-05T04:03:21.040Z,49.65
2022-10-05T04:06:13.545Z,49.66
2022-10-05T04:09:07.174Z,49.66
2022-10-05T04:12:03.370Z,49.66
2022-10-05T04:14:56.984Z,49.68
2022-10-05T04:17:49.014Z,49.68
2022-10-05T04:20:42.533Z,49.70
2022-10-05T04:23:45.134Z,49.70
2022-10-05T04:26:38.834Z,49.73
2022-10-05T04:29:32.564Z,49.78
2022-10-05T04:32:43.164Z,49.76
2022-10-05T04:36:03.955Z,49.72
2022-10-05T04:39:05.683Z,49.74
2022-10-05T04:42:08.507Z,49.72
2022-10-05T04:45:08.759Z,49.71
2022-10-05T04:48:33.810Z,49.71
2022-10-05T04:51:35.956Z,49.69
2022-10-05T04:54:34.882Z,49.69
2022-10-05T04:57:27.997Z,49.68
2022-10-05T05:00:24.553Z,49.68
2022-10-05T05:03:52.529Z,49.67
2022-10-05T05:06:46.922Z,49.68
2022-10-05T05:10:07.379Z,49.67
2022-10-05T05:13:04.007Z,49.69
2022-10-05T05:15:56.610Z,49.68
2022-10-05T05:19:25.108Z,49.68
2022-10-05T05:22:20.601Z,49.69
2022-10-05T05:25:31.664Z,49.68
2022-10-05T05:28:27.168Z,49.69
2022-10-05T05:31:23.753Z,49.69
2022-10-05T05:34:30.254Z,49.68
2022-10-05T05:37:24.487Z,49.70
2022-10-05T05:40:24.660Z,49.70
2022-10-05T05:44:06.261Z,49.72
2022-10-05T05:47:05.271Z,49.74
2022-10-05T05:50:17.735Z,49.75
2022-10-05T05:53:17.478Z,49.76
2022-10-05T05:56:11.859Z,49.77
2022-10-05T05:59:03.565Z,49.76
2022-10-05T06:01:58.458Z,49.78
2022-10-05T06:04:52.562Z,49.78
2022-10-05T06:07:45.164Z,49.79
2022-10-05T06:10:45.221Z,49.81
2022-10-05T06:13:38.660Z,49.83
2022-10-05T06:16:33.387Z,49.85
2022-10-05T06:19:24.577Z,49.87
2022-10-05T06:22:25.802Z,49.64
2022-10-05T06:25:49.781Z,48.42
2022-10-05T06:29:13.148Z,47.61
2022-10-05T06:32:27.231Z,47.01
2022-10-05T06:52:16.385Z,47.23
2022-10-05T06:56:08.957Z,47.34
2022-10-05T06:59:05.319Z,47.40
2022-10-05T07:02:08.917Z,47.05
2022-10-05T07:05:47.194Z,46.27
2022-10-05T07:14:38.046Z,45.77
2022-10-05T07:18:28.165Z,45.17
2022-10-05T07:25:36.605Z,45.84
2022-10-05T07:29:00.540Z,46.13
2022-10-05T07:32:03.740Z,46.34
2022-10-05T07:46:21.400Z,47.02
2022-10-05T07:50:21.728Z,47.17
2022-10-05T10:01:29.060Z,48.45
2022-10-05T10:57:01.286Z,48.67
2022-10-05T11:01:07.392Z,48.70
2022-10-05T11:15:42.912Z,48.80
2022-10-05T11:19:40.102Z,48.73
2022-10-05T11:23:20.493Z,48.29
2022-10-05T11:27:05.083Z,47.94
2022-10-05T11:30:39.121Z,47.25
2022-10-05T11:33:57.851Z,46.76
2022-10-05T11:37:27.049Z,46.13
2022-10-05T11:40:51.842Z,45.87
2022-10-05T11:44:27.963Z,45.60
2022-10-05T11:47:20.868Z,45.35
2022-10-05T11:50:19.505Z,44.94
2022-10-05T11:53:15.206Z,44.67
2022-10-05T11:56:13.538Z,44.34
2022-10-05T11:59:08.546Z,44.31
2022-10-05T12:02:07.973Z,44.23
2022-10-05T12:05:06.074Z,44.05
2022-10-05T12:08:09.244Z,44.08
2022-10-05T12:11:11.884Z,43.93
2022-10-05T12:14:05.410Z,43.86
2022-10-05T12:16:59.498Z,43.92
2022-10-05T12:19:56.647Z,43.93
2022-10-05T12:22:51.152Z,43.48
2022-10-05T12:25:50.812Z,43.69
2022-10-05T12:28:51.493Z,43.63
2022-10-05T12:31:49.500Z,43.62
2022-10-05T12:34:50.728Z,43.59
2022-10-05T12:37:46.541Z,43.60
2022-10-05T12:40:44.585Z,43.64
2022-10-05T12:43:43.754Z,43.62
2022-10-05T12:46:43.648Z,43.52
2022-10-05T12:49:56.839Z,43.23
2022-10-05T12:53:07.014Z,43.46
2022-10-05T12:56:04.269Z,43.48
2022-10-05T12:59:00.206Z,43.54
2022-10-05T13:01:55.959Z,43.37
2022-10-05T13:04:48.767Z,43.51
2022-10-05T13:07:51.835Z,43.67
2022-10-05T13:10:50.539Z,43.44
2022-10-05T13:14:03.303Z,43.66
2022-10-05T13:16:58.937Z,43.95
2022-10-05T13:19:53.135Z,44.49
2022-10-05T13:22:48.647Z,45.05
2022-10-05T13:25:44.525Z,45.37
2022-10-05T13:28:37.543Z,45.31
2022-10-05T13:31:30.794Z,45.36
2022-10-05T13:34:28.238Z,45.77
2022-10-05T13:37:22.756Z,45.98
2022-10-05T13:40:23.513Z,46.03
2022-10-05T13:43:18.037Z,46.11
2022-10-05T13:46:14.031Z,46.29
2022-10-05T13:49:19.234Z,46.37
2022-10-05T13:52:22.186Z,46.42
2022-10-05T13:55:26.415Z,46.54
2022-10-05T13:58:26.292Z,46.60
2022-10-05T14:01:19.664Z,46.70
2022-10-05T14:04:19.959Z,46.75
2022-10-05T14:07:38.860Z,46.81
2022-10-05T14:10:39.464Z,46.85
2022-10-05T14:13:46.591Z,47.02
2022-10-05T14:16:53.772Z,47.01
2022-10-05T14:19:57.250Z,47.14
2022-10-05T14:22:52.590Z,47.16
2022-10-05T14:25:54.446Z,47.22
2022-10-05T14:28:59.896Z,47.31
2022-10-05T14:32:00.823Z,47.32
2022-10-05T14:35:21.834Z,47.36
2022-10-05T14:38:24.071Z,47.43
2022-10-05T14:41:18.719Z,47.50
2022-10-05T14:44:30.003Z,47.53
2022-10-05T14:47:31.047Z,47.58
2022-10-05T14:50:25.692Z,47.58
2022-10-05T14:53:17.986Z,47.68
2022-10-05T14:56:35.922Z,47.77
2022-10-05T14:59:38.898Z,47.79
2022-10-05T15:03:03.245Z,47.90
2022-10-05T15:06:01.141Z,47.90
2022-10-05T15:09:17.861Z,47.95
2022-10-05T15:12:23.284Z,47.99
2022-10-05T15:15:32.760Z,48.04
2022-10-05T15:18:34.297Z,48.08
2022-10-05T15:21:44.676Z,48.13
2022-10-05T15:24:43.764Z,48.08
2022-10-05T15:28:10.375Z,48.11
2022-10-05T15:31:04.565Z,48.12
2022-10-05T15:34:03.294Z,48.18
2022-10-05T15:36:57.756Z,48.14
2022-10-05T15:39:52.932Z,48.20
2022-10-05T15:42:44.886Z,48.22
2022-10-05T15:45:41.438Z,48.27
2022-10-05T15:48:42.997Z,48.23
2022-10-05T15:51:47.321Z,48.24
2022-10-05T15:55:22.275Z,48.25
2022-10-05T15:58:38.575Z,48.25
2022-10-05T16:01:50.835Z,48.27
2022-10-05T16:04:47.121Z,48.31
2022-10-05T16:08:01.512Z,48.33
2022-10-05T16:10:53.820Z,48.36
2022-10-05T16:13:53.704Z,48.39
2022-10-05T16:16:52.608Z,48.38
2022-10-05T16:19:50.224Z,48.39
2022-10-05T16:22:46.244Z,48.42
2022-10-05T16:25:41.856Z,48.45
2022-10-05T16:28:43.374Z,48.35
2022-10-05T16:31:57.110Z,48.42
2022-10-05T16:35:17.248Z,48.43
2022-10-05T16:38:20.444Z,48.46
2022-10-05T16:41:20.573Z,48.51
2022-10-05T16:44:17.625Z,48.54
2022-10-05T16:48:07.841Z,48.55
2022-10-05T16:55:21.033Z,48.54
2022-10-05T16:58:40.239Z,48.57
2022-10-05T17:01:54.570Z,48.63
2022-10-05T17:04:56.299Z,48.66
2022-10-05T17:08:08.741Z,48.69
2022-10-05T17:11:16.834Z,48.71
2022-10-05T17:19:39.775Z,48.68
2022-10-05T17:23:19.925Z,48.69
2022-10-05T17:31:32.777Z,48.67
2022-10-05T17:34:30.657Z,48.71
2022-10-05T17:37:40.269Z,48.72
2022-10-05T17:40:41.583Z,48.72
2022-10-05T17:43:51.442Z,48.75
2022-10-05T17:46:49.896Z,48.76
2022-10-05T17:50:19.629Z,48.79
2022-10-05T17:53:44.811Z,48.79
2022-10-05T18:04:14.318Z,48.78
2022-10-05T18:14:01.884Z,48.77
2022-10-05T18:22:27.212Z,48.92
2022-10-05T18:25:37.657Z,48.93
2022-10-05T18:28:37.718Z,49.21
2022-10-05T18:31:43.284Z,49.45
2022-10-05T18:34:37.829Z,49.25
2022-10-05T18:37:41.607Z,48.78
2022-10-05T18:40:48.678Z,48.38
2022-10-05T18:43:45.829Z,48.13
2022-10-05T18:46:47.009Z,47.89
2022-10-05T18:49:51.341Z,47.81
2022-10-05T18:53:05.910Z,47.60
2022-10-05T18:56:10.785Z,47.63
2022-10-05T18:59:24.214Z,47.31
2022-10-05T19:02:22.759Z,47.06
2022-10-05T19:05:46.859Z,46.86
2022-10-05T19:08:42.438Z,46.74
2022-10-05T19:11:52.853Z,46.50
2022-10-05T19:14:50.154Z,46.39
2022-10-05T19:18:08.104Z,46.28
2022-10-05T19:21:06.396Z,46.25
2022-10-05T19:24:49.804Z,46.17
2022-10-05T19:27:46.813Z,46.27
2022-10-05T19:30:51.332Z,46.33
2022-10-05T19:34:03.037Z,46.52
2022-10-05T19:37:03.254Z,46.61
2022-10-05T19:40:07.348Z,46.63
2022-10-05T19:43:14.378Z,46.57
2022-10-05T19:46:19.007Z,46.50
2022-10-05T19:49:11.449Z,46.52
2022-10-05T19:52:03.950Z,46.52
2022-10-05T19:55:14.866Z,46.46
2022-10-05T19:58:18.441Z,46.41
2022-10-05T20:01:10.819Z,46.43
2022-10-05T20:04:00.940Z,46.39
2022-10-05T20:06:57.880Z,46.33
2022-10-05T20:10:01.373Z,46.19
2022-10-05T20:12:53.189Z,46.32
2022-10-05T20:16:09.720Z,46.31
2022-10-05T20:19:24.188Z,46.35
2022-10-05T20:22:34.077Z,46.30
2022-10-05T20:25:31.841Z,46.26
2022-10-05T20:28:32.291Z,46.27
2022-10-05T20:31:23.342Z,46.23
2022-10-05T20:34:14.799Z,46.31
2022-10-05T20:37:04.917Z,46.35
2022-10-05T20:39:54.982Z,46.46
2022-10-05T20:42:45.080Z,46.62
2022-10-05T20:45:35.753Z,46.98
2022-10-05T20:48:26.417Z,46.93
2022-10-05T20:51:18.790Z,46.93
2022-10-05T20:55:23.495Z,46.92
2022-10-05T20:58:48.642Z,46.98
2022-10-05T21:01:50.667Z,47.08
2022-10-05T21:04:47.214Z,47.23
2022-10-05T21:07:42.238Z,47.21
2022-10-05T21:10:32.619Z,47.48
2022-10-05T21:13:25.106Z,47.65
2022-10-05T21:16:23.747Z,47.81
2022-10-05T21:19:14.558Z,48.01
2022-10-05T21:22:07.459Z,48.27
2022-10-05T21:24:57.925Z,48.63
2022-10-05T21:27:49.657Z,48.80
2022-10-05T21:30:41.502Z,48.92
2022-10-05T21:33:32.192Z,49.03
2022-10-05T21:36:24.684Z,49.18
2022-10-05T21:39:15.089Z,49.24
2022-10-05T21:42:06.092Z,49.37
2022-10-05T21:44:56.361Z,49.46
2022-10-05T21:47:46.596Z,49.53
2022-10-05T21:50:36.859Z,49.67
2022-10-05T21:53:30.392Z,49.74
2022-10-05T21:56:22.114Z,49.84
2022-10-05T21:59:13.287Z,49.85
2022-10-05T22:02:04.608Z,49.90
2022-10-05T22:04:54.653Z,50.00
2022-10-05T22:07:44.674Z,50.03
2022-10-05T22:10:35.017Z,50.06
2022-10-05T22:13:25.542Z,50.09
2022-10-05T22:16:16.199Z,50.12
2022-10-05T22:19:10.066Z,50.26
2022-10-05T22:22:00.107Z,50.24
2022-10-05T22:24:50.519Z,50.25
2022-10-05T22:27:40.611Z,50.30
2022-10-05T22:30:30.925Z,50.27
2022-10-05T22:33:21.401Z,50.37
2022-10-05T22:36:11.388Z,50.38
2022-10-05T22:39:01.835Z,50.38
2022-10-05T22:41:52.021Z,50.39
2022-10-05T22:44:42.235Z,50.38
2022-10-05T22:47:32.581Z,50.42
2022-10-05T22:50:22.813Z,50.44
2022-10-05T22:53:13.663Z,50.51
2022-10-05T22:56:08.498Z,50.49
2022-10-05T22:58:58.495Z,50.52
2022-10-05T23:01:48.636Z,50.52
2022-10-05T23:04:38.835Z,50.52
2022-10-05T23:07:33.821Z,50.57
2022-10-05T23:10:25.595Z,50.52
2022-10-05T23:13:16.594Z,50.55
2022-10-05T23:16:11.474Z,50.57
2022-10-05T23:19:02.605Z,50.55
2022-10-05T23:21:53.043Z,50.56
2022-10-05T23:24:43.605Z,50.60
2022-10-05T23:27:38.380Z,50.58
2022-10-05T23:30:28.783Z,50.57
2022-10-05T23:33:19.169Z,50.61
2022-10-05T23:36:12.269Z,50.61
2022-10-05T23:39:02.682Z,50.61
2022-10-05T23:41:53.189Z,50.59
2022-10-05T23:44:43.228Z,50.60
2022-10-05T23:47:33.251Z,50.64
2022-10-05T23:50:24.556Z,50.61
2022-10-05T23:53:14.644Z,50.61
2022-10-05T23:56:05.143Z,50.60
2022-10-05T23:58:55.358Z,50.60
